Time;durP1;ratioP1;P1;durP2;ratioP2;P2;SDS_P1;SDS_P2;PMS_P1;PMS_P2;Temp;Humidity;BMP_temperature;BMP_pressure;BME280_temperature;BME280_humidity;BME280_pressure;Samples;Min_cycle;Max_cycle;Signal;HPM_P1;HPM_P2
2021/03/07 00:01:07;;;;;;;31.75;18.45;;;-7.60;77.90;;;;;;4419951;32;20236;-58
2021/03/07 00:03:33;;;;;;;31.12;18.73;;;-7.70;78.70;;;;;;4383173;32;20235;-58
2021/03/07 00:06:00;;;;;;;32.10;18.92;;;-7.60;78.80;;;;;;4390690;32;20133;-58
2021/03/07 00:08:26;;;;;;;30.50;17.83;;;-7.60;78.80;;;;;;4366040;32;20073;-58
2021/03/07 00:10:52;;;;;;;26.98;17.05;;;-7.50;78.20;;;;;;4382811;32;20095;-58
2021/03/07 00:13:19;;;;;;;25.73;17.23;;;-7.50;78.40;;;;;;4410782;32;20068;-60
2021/03/07 00:15:45;;;;;;;25.70;17.05;;;-7.50;78.00;;;;;;4390546;32;20077;-58
2021/03/07 00:18:11;;;;;;;29.37;17.62;;;-7.40;78.00;;;;;;4402529;32;20070;-58
2021/03/07 00:20:37;;;;;;;28.98;17.45;;;-7.40;77.80;;;;;;4404223;32;20143;-58
2021/03/07 00:23:03;;;;;;;25.52;16.80;;;-7.50;78.00;;;;;;4402963;32;20069;-58
2021/03/07 00:25:30;;;;;;;31.42;17.50;;;-7.50;78.20;;;;;;4402590;32;20167;-59
2021/03/07 00:27:56;;;;;;;28.58;18.17;;;-7.40;77.70;;;;;;4402725;32;20459;-58
2021/03/07 00:30:22;;;;;;;26.77;16.17;;;-7.50;77.70;;;;;;4404015;32;20081;-58
2021/03/07 00:32:48;;;;;;;25.08;15.90;;;-7.50;78.50;;;;;;4398325;32;20072;-59
2021/03/07 00:35:14;;;;;;;26.62;17.15;;;-7.50;78.60;;;;;;4387874;32;20082;-58
2021/03/07 00:37:41;;;;;;;25.27;14.93;;;-7.50;78.30;;;;;;4375042;32;20074;-59
2021/03/07 00:40:08;;;;;;;29.83;16.83;;;-7.50;78.50;;;;;;4362649;32;20168;-58
2021/03/07 00:42:35;;;;;;;19.70;13.05;;;-7.50;78.90;;;;;;4375086;32;20077;-58
2021/03/07 00:45:05;;;;;;;14.73;10.13;;;-7.40;78.20;;;;;;4387291;32;20069;-62
2021/03/07 00:47:31;;;;;;;15.45;9.82;;;-7.30;77.10;;;;;;4387013;32;20062;-59
2021/03/07 00:49:58;;;;;;;13.85;9.45;;;-7.20;76.30;;;;;;4399051;32;20145;-58
2021/03/07 00:52:24;;;;;;;17.05;9.98;;;-6.90;75.20;;;;;;4402010;32;20069;-59
2021/03/07 00:54:50;;;;;;;15.60;9.15;;;-6.90;74.80;;;;;;4402321;32;20087;-58
2021/03/07 00:57:16;;;;;;;19.52;11.68;;;-6.90;75.00;;;;;;4402775;32;20097;-58
2021/03/07 00:59:42;;;;;;;17.23;10.32;;;-6.90;75.70;;;;;;4402040;32;20081;-58
2021/03/07 01:02:08;;;;;;;14.77;9.88;;;-6.90;76.10;;;;;;4414508;32;20061;-57
2021/03/07 01:04:35;;;;;;;13.32;8.93;;;-6.90;75.90;;;;;;4405181;32;20065;-58
2021/03/07 01:07:01;;;;;;;10.50;8.05;;;-6.70;74.80;;;;;;4408813;32;20057;-58
2021/03/07 01:09:27;;;;;;;11.57;8.25;;;-6.70;74.90;;;;;;4369658;32;20073;-59
2021/03/07 01:11:54;;;;;;;9.63;7.28;;;-6.60;74.30;;;;;;4379412;32;20065;-59
2021/03/07 01:14:20;;;;;;;11.32;7.68;;;-6.60;73.90;;;;;;4373985;32;20062;-59
2021/03/07 01:16:46;;;;;;;11.48;7.75;;;-6.70;74.10;;;;;;4339420;32;20464;-58
2021/03/07 01:19:12;;;;;;;9.93;7.18;;;-6.80;75.10;;;;;;4374920;32;20082;-58
2021/03/07 01:21:39;;;;;;;12.63;7.12;;;-7.00;75.50;;;;;;4376712;32;20058;-58
2021/03/07 01:24:07;;;;;;;8.98;6.22;;;-7.00;75.80;;;;;;4364769;32;20177;-59
2021/03/07 01:26:33;;;;;;;11.05;6.50;;;-7.10;76.10;;;;;;4341499;32;20090;-58
2021/03/07 01:28:59;;;;;;;10.88;6.55;;;-7.10;76.00;;;;;;4392158;32;20061;-58
2021/03/07 01:31:25;;;;;;;8.18;6.10;;;-7.20;76.80;;;;;;4392146;32;20062;-58
2021/03/07 01:33:51;;;;;;;9.00;5.97;;;-7.10;76.70;;;;;;4383740;32;20138;-59
2021/03/07 01:36:18;;;;;;;9.82;6.75;;;-7.10;76.60;;;;;;4376472;32;20147;-58
2021/03/07 01:38:44;;;;;;;10.50;6.22;;;-7.10;76.60;;;;;;4376616;32;20080;-58
2021/03/07 01:41:10;;;;;;;7.82;6.40;;;-7.10;76.40;;;;;;4376322;32;20132;-59
2021/03/07 01:43:36;;;;;;;8.57;5.95;;;-6.90;76.10;;;;;;4377905;32;20155;-59
2021/03/07 01:46:02;;;;;;;13.32;7.55;;;-6.80;76.10;;;;;;4364077;32;20074;-58
2021/03/07 01:48:29;;;;;;;12.50;6.25;;;-6.80;75.70;;;;;;4370889;32;20066;-58
2021/03/07 01:50:55;;;;;;;9.05;6.43;;;-6.80;75.80;;;;;;4375954;32;20062;-58
2021/03/07 01:53:22;;;;;;;8.88;6.65;;;-6.90;76.10;;;;;;4364284;32;20070;-59
2021/03/07 01:55:50;;;;;;;8.02;5.65;;;-6.90;76.10;;;;;;4382100;32;20224;-59
2021/03/07 01:58:28;;;;;;;9.35;6.62;;;-7.00;76.40;;;;;;4370240;32;20200;-58
2021/03/07 02:00:55;;;;;;;8.00;6.10;;;-6.90;77.00;;;;;;4366604;32;20093;-58
2021/03/07 02:03:22;;;;;;;8.82;7.05;;;-6.80;76.50;;;;;;4363506;32;20062;-58
2021/03/07 02:05:48;;;;;;;9.48;6.70;;;-6.90;76.10;;;;;;4351247;32;20067;-58
2021/03/07 02:08:16;;;;;;;10.35;7.65;;;-7.40;77.20;;;;;;4339131;32;20183;-58
2021/03/07 02:10:56;;;;;;;9.45;7.85;;;-7.60;78.70;;;;;;4363765;32;20448;-58
2021/03/07 02:13:31;;;;;;;10.75;7.00;;;-7.40;79.20;;;;;;4351832;32;20160;-59
2021/03/07 02:16:08;;;;;;;9.82;7.20;;;-7.30;78.00;;;;;;4363818;32;20112;-58
2021/03/07 02:18:38;;;;;;;8.73;6.62;;;-7.40;78.10;;;;;;4364496;32;20081;-58
2021/03/07 02:21:29;;;;;;;10.50;6.80;;;-7.40;78.30;;;;;;4364583;32;20605;-60
2021/03/07 02:24:09;;;;;;;10.77;6.90;;;-7.40;78.80;;;;;;4352837;32;20070;-58
2021/03/07 02:26:38;;;;;;;8.98;6.65;;;-7.40;79.20;;;;;;4353502;32;20098;-58
2021/03/07 02:29:06;;;;;;;10.65;7.37;;;-7.30;78.50;;;;;;4378812;32;20070;-58
2021/03/07 02:31:32;;;;;;;9.38;7.43;;;-7.30;78.40;;;;;;4366252;32;20150;-58
2021/03/07 02:34:09;;;;;;;11.02;7.60;;;-7.30;78.30;;;;;;4368311;32;20070;-58
2021/03/07 02:36:49;;;;;;;9.43;6.55;;;-7.20;78.10;;;;;;4363367;32;20081;-58
2021/03/07 02:39:18;;;;;;;11.38;7.50;;;-6.90;77.60;;;;;;4363698;32;20537;-57
2021/03/07 02:41:44;;;;;;;9.77;6.65;;;-7.00;77.30;;;;;;4370592;32;20082;-58
2021/03/07 02:44:13;;;;;;;10.68;7.45;;;-6.70;76.20;;;;;;4357372;32;20090;-58
2021/03/07 02:46:39;;;;;;;10.93;7.20;;;-6.70;76.80;;;;;;4353604;32;20170;-59
2021/03/07 02:49:08;;;;;;;9.00;6.53;;;-6.90;76.10;;;;;;4350041;32;20504;-59
2021/03/07 02:51:35;;;;;;;10.95;7.40;;;-7.10;77.00;;;;;;4363443;32;20062;-57
2021/03/07 02:54:06;;;;;;;10.23;7.35;;;-7.30;78.20;;;;;;4354137;32;20070;-58
2021/03/07 02:56:34;;;;;;;10.45;8.15;;;-7.30;78.30;;;;;;4368633;32;20477;-58
2021/03/07 02:59:06;;;;;;;10.15;7.40;;;-7.20;78.20;;;;;;4375648;32;20082;-59
2021/03/07 03:01:32;;;;;;;8.60;7.30;;;-6.90;76.10;;;;;;4364501;32;20069;-61
2021/03/07 03:03:58;;;;;;;9.25;7.37;;;-6.70;74.10;;;;;;4325702;32;20090;-58
2021/03/07 03:06:25;;;;;;;11.35;7.20;;;-6.80;74.20;;;;;;4362654;32;20070;-58
2021/03/07 03:08:53;;;;;;;10.57;7.60;;;-6.70;74.30;;;;;;4375388;32;20070;-59
2021/03/07 03:11:25;;;;;;;9.73;7.30;;;-6.60;73.90;;;;;;4370223;32;20160;-58
2021/03/07 03:13:52;;;;;;;9.00;7.30;;;-6.70;73.40;;;;;;4366445;32;20146;-58
2021/03/07 03:16:22;;;;;;;13.00;7.70;;;-6.60;73.30;;;;;;4364887;32;20066;-58
2021/03/07 03:18:48;;;;;;;11.20;7.57;;;-6.70;73.60;;;;;;4350645;32;20098;-58
2021/03/07 03:21:14;;;;;;;9.15;7.50;;;-6.70;73.70;;;;;;4362425;32;20058;-59
2021/03/07 03:23:41;;;;;;;10.55;8.02;;;-6.70;73.70;;;;;;4389911;32;20584;-58
2021/03/07 03:26:09;;;;;;;10.52;7.45;;;-7.00;74.50;;;;;;4377444;32;20073;-58
2021/03/07 03:28:39;;;;;;;11.18;7.82;;;-7.00;74.60;;;;;;4351061;32;20062;-59
2021/03/07 03:31:06;;;;;;;12.13;8.13;;;-7.30;75.00;;;;;;4363382;32;20058;-58
2021/03/07 03:33:32;;;;;;;12.20;8.07;;;-7.30;75.90;;;;;;4380727;32;20519;-58
2021/03/07 03:35:59;;;;;;;15.25;9.77;;;-7.50;76.20;;;;;;4349811;32;20464;-58
2021/03/07 03:38:42;;;;;;;13.55;9.98;;;-7.50;76.60;;;;;;4350196;32;20093;-59
2021/03/07 03:41:09;;;;;;;12.30;8.95;;;-7.40;77.00;;;;;;4362685;32;20140;-59
2021/03/07 03:43:36;;;;;;;10.50;8.15;;;-7.20;76.50;;;;;;4350719;32;20493;-58
2021/03/07 03:46:03;;;;;;;9.43;7.57;;;-7.00;75.90;;;;;;4375052;32;20131;-57
2021/03/07 03:48:33;;;;;;;13.73;9.00;;;-7.00;74.70;;;;;;4374299;32;20074;-59
2021/03/07 03:50:59;;;;;;;9.75;6.82;;;-7.30;75.40;;;;;;4362931;32;20073;-58
2021/03/07 03:53:25;;;;;;;8.80;6.95;;;-7.00;74.10;;;;;;4375076;32;20089;-58
2021/03/07 03:55:52;;;;;;;9.93;7.00;;;-6.80;73.60;;;;;;4374491;32;20080;-57
2021/03/07 03:58:23;;;;;;;9.27;7.20;;;-6.80;73.10;;;;;;4362216;32;20497;-58
2021/03/07 04:00:50;;;;;;;10.88;7.30;;;-6.90;73.70;;;;;;4362278;32;20140;-58
2021/03/07 04:03:17;;;;;;;10.75;7.07;;;-6.70;72.80;;;;;;4362083;32;20185;-57
2021/03/07 04:05:48;;;;;;;10.73;7.70;;;-6.90;73.40;;;;;;4363113;32;20077;-59
2021/03/07 04:08:19;;;;;;;10.75;7.65;;;-7.00;73.70;;;;;;4357846;32;20097;-57
2021/03/07 04:10:46;;;;;;;10.48;7.12;;;-7.00;73.00;;;;;;4356542;32;20115;-58
2021/03/07 04:13:22;;;;;;;8.23;6.47;;;-7.10;73.10;;;;;;4337822;32;20501;-59
2021/03/07 04:15:49;;;;;;;8.93;6.82;;;-7.20;74.10;;;;;;4374773;32;20458;-58
2021/03/07 04:18:17;;;;;;;9.00;6.25;;;-7.30;74.20;;;;;;4374565;32;20073;-58
2021/03/07 04:20:44;;;;;;;9.52;5.78;;;-7.30;75.10;;;;;;4350202;32;20444;-57
2021/03/07 04:23:10;;;;;;;9.55;6.62;;;-7.30;75.50;;;;;;4350109;32;20074;-58
2021/03/07 04:25:37;;;;;;;8.35;5.68;;;-7.10;74.70;;;;;;4362232;32;20493;-58
2021/03/07 04:28:05;;;;;;;8.60;5.78;;;-7.30;74.90;;;;;;4360735;32;20066;-58
2021/03/07 04:30:35;;;;;;;9.43;5.80;;;-7.40;75.80;;;;;;4377245;32;20089;-57
2021/03/07 04:33:02;;;;;;;9.27;5.82;;;-7.40;75.80;;;;;;4361004;32;20081;-58
2021/03/07 04:35:29;;;;;;;7.90;5.90;;;-7.50;75.80;;;;;;4362237;32;20062;-57
2021/03/07 04:38:00;;;;;;;7.03;5.20;;;-7.40;75.50;;;;;;4374671;32;20077;-58
2021/03/07 04:40:27;;;;;;;6.87;5.35;;;-7.40;75.30;;;;;;4374877;32;20142;-58
2021/03/07 04:42:53;;;;;;;7.50;5.43;;;-7.40;75.40;;;;;;4377241;32;20162;-58
2021/03/07 04:45:21;;;;;;;7.03;5.57;;;-7.40;75.50;;;;;;4387003;32;20500;-59
2021/03/07 04:47:47;;;;;;;7.80;5.68;;;-7.20;74.90;;;;;;4382791;32;20069;-60
2021/03/07 04:50:13;;;;;;;8.57;5.57;;;-7.00;74.40;;;;;;4381176;32;20167;-60
2021/03/07 04:52:41;;;;;;;8.32;5.62;;;-6.90;73.70;;;;;;4377466;32;20073;-58
2021/03/07 04:55:08;;;;;;;7.47;5.45;;;-7.10;73.90;;;;;;4377061;32;20063;-57
2021/03/07 04:57:35;;;;;;;7.37;5.40;;;-7.30;74.90;;;;;;4364692;32;20075;-59
2021/03/07 05:00:12;;;;;;;7.80;4.80;;;-7.20;74.50;;;;;;4364842;32;20501;-59
2021/03/07 05:02:38;;;;;;;7.82;5.10;;;-7.30;74.60;;;;;;4377555;32;20487;-58
2021/03/07 05:05:06;;;;;;;7.60;5.80;;;-7.40;74.60;;;;;;4364243;32;20169;-59
2021/03/07 05:07:32;;;;;;;7.43;5.65;;;-7.40;75.20;;;;;;4352527;32;20070;-58
2021/03/07 05:09:58;;;;;;;7.85;6.05;;;-7.10;73.90;;;;;;4377313;32;20167;-58
2021/03/07 05:12:25;;;;;;;7.80;5.57;;;-7.60;75.00;;;;;;4376916;32;20070;-58
2021/03/07 05:14:51;;;;;;;9.02;6.00;;;-7.40;74.60;;;;;;4378393;32;20485;-58
2021/03/07 05:17:18;;;;;;;7.72;5.93;;;-7.30;74.20;;;;;;4365316;32;20067;-58
2021/03/07 05:19:44;;;;;;;8.88;6.03;;;-7.60;75.40;;;;;;4376906;32;20532;-58
2021/03/07 05:22:10;;;;;;;8.57;5.82;;;-7.50;74.10;;;;;;4339810;32;20086;-58
2021/03/07 05:24:39;;;;;;;10.30;6.85;;;-7.70;74.30;;;;;;4378293;32;20167;-58
2021/03/07 05:27:05;;;;;;;10.32;6.43;;;-7.20;73.40;;;;;;4381455;32;20081;-58
2021/03/07 05:29:36;;;;;;;8.60;6.15;;;-6.00;69.70;;;;;;4391692;32;20078;-58
2021/03/07 05:32:03;;;;;;;8.40;6.45;;;-5.00;62.60;;;;;;4379019;32;20069;-59
2021/03/07 05:34:29;;;;;;;8.85;6.75;;;-4.50;60.10;;;;;;4353867;32;20486;-58
2021/03/07 05:36:56;;;;;;;11.30;7.50;;;-4.50;59.20;;;;;;4363752;32;20066;-59
2021/03/07 05:39:24;;;;;;;10.10;6.78;;;-5.00;59.90;;;;;;4364104;32;20074;-58
2021/03/07 05:41:50;;;;;;;9.57;6.20;;;-3.90;58.30;;;;;;4364331;32;20089;-57
2021/03/07 05:44:16;;;;;;;9.75;6.72;;;-4.70;58.70;;;;;;4351558;32;20441;-57
2021/03/07 05:46:42;;;;;;;9.75;7.00;;;-4.70;60.00;;;;;;4364517;32;20089;-58
2021/03/07 05:49:09;;;;;;;9.93;6.75;;;-4.00;58.20;;;;;;4379854;32;20138;-57
2021/03/07 05:51:36;;;;;;;9.02;5.85;;;-4.50;56.90;;;;;;4359221;32;20097;-58
2021/03/07 05:54:03;;;;;;;10.10;6.47;;;-3.90;57.80;;;;;;4352716;32;20096;-58
2021/03/07 05:56:29;;;;;;;7.65;5.90;;;-3.70;56.50;;;;;;4351108;32;20530;-58
2021/03/07 05:58:57;;;;;;;7.95;6.28;;;-3.80;54.90;;;;;;4363906;32;20077;-58
2021/03/07 06:01:23;;;;;;;9.25;5.68;;;-3.30;54.90;;;;;;4352650;32;20085;-58
2021/03/07 06:03:49;;;;;;;9.02;5.80;;;-4.60;57.30;;;;;;4376500;32;20071;-58
2021/03/07 06:06:15;;;;;;;8.57;5.85;;;-4.40;58.80;;;;;;4376829;32;20085;-59
2021/03/07 06:08:42;;;;;;;9.05;5.60;;;-3.40;55.70;;;;;;4376716;32;20492;-58
2021/03/07 06:11:08;;;;;;;8.82;6.05;;;-3.00;53.80;;;;;;4339929;32;20175;-60
2021/03/07 06:13:39;;;;;;;8.77;5.68;;;-3.10;53.20;;;;;;4364771;32;20102;-59
2021/03/07 06:16:10;;;;;;;9.27;5.80;;;-2.90;53.20;;;;;;4376487;32;20058;-58
2021/03/07 06:18:41;;;;;;;8.02;5.65;;;-2.40;51.80;;;;;;4363776;32;20074;-58
2021/03/07 06:21:30;;;;;;;8.40;5.45;;;-3.20;52.60;;;;;;4363608;32;20242;-57
2021/03/07 06:23:58;;;;;;;9.10;5.82;;;-4.60;60.30;;;;;;4363784;32;20527;-58
2021/03/07 06:26:24;;;;;;;7.87;5.35;;;-4.90;61.70;;;;;;4352442;32;20071;-58
2021/03/07 06:29:11;;;;;;;7.12;5.50;;;-4.90;62.30;;;;;;4379101;32;20173;-57
2021/03/07 06:31:40;;;;;;;7.65;5.10;;;-5.40;64.00;;;;;;4399024;32;20073;-59
2021/03/07 06:34:06;;;;;;;7.10;5.30;;;-4.90;64.20;;;;;;4384203;32;20121;-59
2021/03/07 06:36:33;;;;;;;6.62;4.60;;;-4.80;61.70;;;;;;4338777;32;20151;-60
2021/03/07 06:39:02;;;;;;;6.53;4.18;;;-5.00;62.50;;;;;;4377775;32;20082;-59
2021/03/07 06:41:32;;;;;;;7.00;4.47;;;-5.20;64.10;;;;;;4376140;32;20081;-58
2021/03/07 06:44:15;;;;;;;8.20;4.45;;;-4.90;64.10;;;;;;4375685;32;20062;-59
2021/03/07 06:46:44;;;;;;;6.65;4.30;;;-4.90;64.30;;;;;;4363706;32;20085;-59
2021/03/07 06:49:28;;;;;;;7.50;4.85;;;-5.20;64.00;;;;;;4362732;32;20090;-62
2021/03/07 06:52:17;;;;;;;8.13;4.93;;;-4.90;63.60;;;;;;4376159;32;20088;-60
2021/03/07 06:55:01;;;;;;;7.65;4.80;;;-4.50;63.00;;;;;;4375066;32;20505;-58
2021/03/07 06:57:28;;;;;;;6.32;3.90;;;-4.60;62.00;;;;;;4375402;32;20085;-59
2021/03/07 06:59:55;;;;;;;5.93;4.30;;;-4.70;62.60;;;;;;4362786;32;20159;-59
2021/03/07 07:02:21;;;;;;;7.15;4.68;;;-4.70;64.30;;;;;;4349930;32;20514;-58
2021/03/07 07:04:47;;;;;;;6.57;4.68;;;-4.40;64.20;;;;;;4363556;32;20153;-58
2021/03/07 07:07:16;;;;;;;8.50;4.60;;;-4.10;62.10;;;;;;4374890;32;20113;-58
2021/03/07 07:09:44;;;;;;;6.50;4.18;;;-4.40;61.70;;;;;;4375351;32;20098;-58
2021/03/07 07:12:23;;;;;;;7.60;4.20;;;-4.30;62.80;;;;;;4363608;32;20097;-58
2021/03/07 07:14:50;;;;;;;8.15;3.97;;;-4.30;62.00;;;;;;4366017;32;20077;-60
2021/03/07 07:17:20;;;;;;;4.32;3.20;;;-4.20;63.10;;;;;;4377009;32;20058;-59
2021/03/07 07:19:47;;;;;;;5.18;3.58;;;-3.80;61.80;;;;;;4374890;32;20075;-58
2021/03/07 07:22:16;;;;;;;4.90;3.40;;;-4.00;62.00;;;;;;4338030;32;20077;-58
2021/03/07 07:24:43;;;;;;;6.18;3.60;;;-3.60;61.40;;;;;;4375354;32;20150;-58
2021/03/07 07:27:10;;;;;;;5.68;3.85;;;-3.40;61.50;;;;;;4363146;32;20073;-59
2021/03/07 07:29:36;;;;;;;6.30;3.60;;;-4.00;60.90;;;;;;4350610;32;20162;-59
2021/03/07 07:32:05;;;;;;;8.52;4.20;;;-3.90;61.40;;;;;;4338322;32;20444;-58
2021/03/07 07:34:51;;;;;;;5.70;3.75;;;-3.90;61.80;;;;;;4374804;32;20096;-58
2021/03/07 07:37:22;;;;;;;6.00;4.20;;;-3.80;62.70;;;;;;4350296;32;20529;-58
2021/03/07 07:39:51;;;;;;;7.80;3.95;;;-3.80;61.30;;;;;;4351386;32;20128;-58
2021/03/07 07:42:29;;;;;;;5.75;4.15;;;-4.10;62.10;;;;;;4375239;32;20136;-58
2021/03/07 07:45:16;;;;;;;7.75;4.28;;;-3.70;62.00;;;;;;4350931;32;20076;-60
2021/03/07 07:47:44;;;;;;;6.78;4.53;;;-3.60;60.30;;;;;;4356581;32;20506;-58
2021/03/07 07:50:36;;;;;;;4.60;3.33;;;-3.30;61.30;;;;;;4365552;32;20073;-58
2021/03/07 07:53:14;;;;;;;6.25;3.90;;;-3.90;61.00;;;;;;4390683;32;20515;-58
2021/03/07 07:55:45;;;;;;;5.53;3.80;;;-3.90;64.10;;;;;;4388453;32;20090;-62
2021/03/07 07:58:39;;;;;;;8.35;3.72;;;-3.40;61.50;;;;;;4366963;32;20456;-59
2021/03/07 08:01:09;;;;;;;5.43;3.72;;;-3.40;62.50;;;;;;4377168;32;20557;-57
2021/03/07 08:03:39;;;;;;;5.75;3.50;;;-3.20;60.80;;;;;;4361653;32;20597;-58
2021/03/07 08:06:07;;;;;;;6.03;3.40;;;-3.40;61.60;;;;;;4375403;32;20082;-58
2021/03/07 08:08:35;;;;;;;5.12;3.30;;;-3.50;61.10;;;;;;4375130;32;20074;-58
2021/03/07 08:11:03;;;;;;;6.35;3.58;;;-3.60;62.40;;;;;;4362721;32;20082;-58
2021/03/07 08:13:29;;;;;;;8.48;3.67;;;-4.10;65.90;;;;;;4375354;32;20062;-58
2021/03/07 08:16:02;;;;;;;5.07;3.65;;;-4.40;64.30;;;;;;4361980;32;20062;-58
2021/03/07 08:19:01;;;;;;;6.97;4.15;;;-4.40;67.60;;;;;;4363018;32;20202;-57
2021/03/07 08:21:27;;;;;;;4.70;3.30;;;-4.30;65.70;;;;;;4353552;32;20094;-58
2021/03/07 08:24:00;;;;;;;6.07;3.33;;;-4.00;65.00;;;;;;4352895;32;20448;-58
2021/03/07 08:26:45;;;;;;;6.57;3.33;;;-3.10;61.40;;;;;;4366275;32;20118;-58
2021/03/07 08:29:48;;;;;;;5.07;3.20;;;-3.40;63.60;;;;;;4392763;32;20071;-58
2021/03/07 08:32:41;;;;;;;5.60;3.20;;;-3.10;59.90;;;;;;4390552;32;20068;-59
2021/03/07 08:35:24;;;;;;;4.90;3.47;;;-3.10;60.20;;;;;;4379740;32;20165;-58
2021/03/07 08:38:14;;;;;;;4.68;3.50;;;-3.20;61.80;;;;;;4368333;32;20073;-59
2021/03/07 08:40:54;;;;;;;4.85;3.75;;;-2.60;59.30;;;;;;4392926;32;20059;-59
2021/03/07 08:43:23;;;;;;;5.12;3.53;;;-3.00;58.50;;;;;;4381498;32;20085;-58
2021/03/07 08:46:13;;;;;;;7.20;3.90;;;-3.60;62.20;;;;;;4392326;32;20076;-59
2021/03/07 08:48:41;;;;;;;6.47;3.40;;;-3.20;60.40;;;;;;4391665;32;20093;-59
2021/03/07 08:51:08;;;;;;;6.12;3.92;;;-2.80;59.90;;;;;;4379986;32;20118;-58
2021/03/07 08:53:39;;;;;;;6.50;3.67;;;-2.90;59.60;;;;;;4380819;32;20191;-59
2021/03/07 08:56:06;;;;;;;7.28;3.45;;;-3.60;62.40;;;;;;4385652;32;20133;-58
2021/03/07 08:58:33;;;;;;;5.05;3.10;;;-3.00;60.40;;;;;;4346290;32;20143;-59
2021/03/07 09:00:59;;;;;;;4.43;3.22;;;-2.90;59.30;;;;;;4367444;32;20072;-59
2021/03/07 09:03:27;;;;;;;4.68;3.20;;;-2.10;56.60;;;;;;4370046;32;20508;-58
2021/03/07 09:05:54;;;;;;;6.47;4.05;;;-2.60;56.60;;;;;;4364886;32;20179;-59
2021/03/07 09:08:22;;;;;;;4.50;3.10;;;-2.80;58.60;;;;;;4377226;32;20143;-59
2021/03/07 09:10:51;;;;;;;5.68;3.30;;;-2.20;57.30;;;;;;4377735;32;20182;-58
2021/03/07 09:13:22;;;;;;;5.53;3.08;;;-2.40;56.20;;;;;;4352425;32;20530;-58
2021/03/07 09:16:00;;;;;;;5.82;3.40;;;-2.30;57.10;;;;;;4377308;32;20165;-59
2021/03/07 09:18:33;;;;;;;5.20;3.30;;;-2.30;56.40;;;;;;4364929;32;20081;-58
2021/03/07 09:21:10;;;;;;;5.43;3.33;;;-2.30;56.50;;;;;;4364383;32;20512;-58
2021/03/07 09:23:41;;;;;;;5.35;3.40;;;-2.70;56.60;;;;;;4352639;32;20086;-57
2021/03/07 09:26:09;;;;;;;5.22;3.20;;;-2.50;57.00;;;;;;4377390;32;20070;-58
2021/03/07 09:28:42;;;;;;;4.43;3.20;;;-2.60;56.80;;;;;;4376552;32;20501;-58
2021/03/07 09:31:17;;;;;;;5.22;3.50;;;-2.60;57.00;;;;;;4389206;32;20062;-59
2021/03/07 09:33:51;;;;;;;7.72;3.50;;;-2.10;55.90;;;;;;4359325;32;20062;-59
2021/03/07 09:36:22;;;;;;;4.35;3.20;;;-2.10;55.30;;;;;;4377327;32;20217;-58
2021/03/07 09:39:00;;;;;;;5.45;3.35;;;-2.40;56.10;;;;;;4366259;32;20066;-59
2021/03/07 09:41:33;;;;;;;6.85;3.40;;;-2.10;56.40;;;;;;4367370;32;20063;-59
2021/03/07 09:44:05;;;;;;;4.65;3.15;;;-2.40;55.10;;;;;;4377717;32;20070;-58
2021/03/07 09:46:32;;;;;;;6.40;3.12;;;-2.20;55.60;;;;;;4365174;32;20089;-58
2021/03/07 09:49:08;;;;;;;4.70;3.28;;;-2.20;55.60;;;;;;4375543;32;20073;-58
2021/03/07 09:51:42;;;;;;;;;;;-2.30;56.10;;;;;;4367594;32;20166;-59
2021/03/07 09:54:12;;;;;;;4.55;3.78;;;-2.30;56.40;;;;;;4391019;32;19976;-58
2021/03/07 09:56:40;;;;;;;4.35;2.97;;;-2.50;56.00;;;;;;4378942;32;20153;-58
2021/03/07 09:59:20;;;;;;;6.00;2.78;;;-2.30;55.40;;;;;;4367346;32;20078;-59
2021/03/07 10:01:57;;;;;;;4.72;3.20;;;-2.70;56.40;;;;;;4379856;32;20171;-58
2021/03/07 10:04:31;;;;;;;4.50;2.90;;;-2.50;56.40;;;;;;4379047;32;20178;-58
2021/03/07 10:07:20;;;;;;;4.30;3.00;;;-2.20;55.30;;;;;;4366988;32;20073;-57
2021/03/07 10:10:23;;;;;;;5.07;2.90;;;-2.40;54.90;;;;;;4393940;32;20066;-59
2021/03/07 10:12:57;;;;;;;5.20;2.87;;;-2.30;54.20;;;;;;4378632;32;20077;-62
2021/03/07 10:15:29;;;;;;;5.10;2.50;;;-1.90;54.30;;;;;;4379756;32;20162;-58
2021/03/07 10:18:15;;;;;;;3.95;3.00;;;-2.10;54.70;;;;;;4373258;32;20062;-59
2021/03/07 10:20:43;;;;;;;;;;;-1.50;53.00;;;;;;4376481;32;20520;-59
2021/03/07 10:23:10;;;;;;;4.80;3.05;;;-1.90;53.30;;;;;;4351630;32;20062;-60
2021/03/07 10:25:40;;;;;;;4.90;3.00;;;-1.60;52.90;;;;;;4363901;32;20522;-58
2021/03/07 10:28:24;;;;;;;3.53;2.60;;;-2.40;54.00;;;;;;4376134;32;20078;-58
2021/03/07 10:30:52;;;;;;;4.93;3.10;;;-2.00;54.40;;;;;;4365301;32;20061;-58
2021/03/07 10:33:28;;;;;;;4.57;2.72;;;-1.60;53.50;;;;;;4375621;32;20521;-58
2021/03/07 10:36:12;;;;;;;4.43;2.87;;;-1.90;51.90;;;;;;4376475;32;20134;-58
2021/03/07 10:38:49;;;;;;;5.28;3.55;;;-1.70;51.00;;;;;;4364055;32;20089;-58
2021/03/07 10:41:32;;;;;;;6.25;3.87;;;-1.50;51.70;;;;;;4375754;32;20519;-59
2021/03/07 10:44:04;;;;;;;4.78;3.45;;;-1.80;51.70;;;;;;4363769;32;20058;-58
2021/03/07 10:46:40;;;;;;;5.47;3.40;;;-1.90;52.00;;;;;;4375549;32;20174;-58
2021/03/07 10:49:11;;;;;;;6.45;3.80;;;-2.00;51.10;;;;;;4361440;32;20179;-59
2021/03/07 10:51:37;;;;;;;6.25;4.12;;;-1.90;52.00;;;;;;4351877;32;20073;-59
2021/03/07 10:54:05;;;;;;;6.25;4.35;;;-1.20;51.20;;;;;;4363586;32;20073;-59
2021/03/07 10:56:36;;;;;;;8.82;4.82;;;-1.70;50.80;;;;;;4363501;32;20095;-58
2021/03/07 10:59:02;;;;;;;8.35;5.05;;;-1.90;51.60;;;;;;4365138;32;20070;-59
2021/03/07 11:01:29;;;;;;;8.15;4.80;;;-2.20;52.90;;;;;;4363088;32;20489;-58
2021/03/07 11:03:55;;;;;;;7.20;4.85;;;-2.20;52.80;;;;;;4377483;32;20160;-58
2021/03/07 11:06:21;;;;;;;9.07;4.70;;;-2.00;52.50;;;;;;4375641;32;20568;-58
2021/03/07 11:08:48;;;;;;;9.70;4.78;;;-2.50;53.50;;;;;;4350624;32;20097;-58
2021/03/07 11:11:15;;;;;;;7.57;4.68;;;-2.00;53.00;;;;;;4350132;32;20187;-58
2021/03/07 11:13:41;;;;;;;7.55;4.85;;;-2.20;53.40;;;;;;4363185;32;20086;-58
2021/03/07 11:16:07;;;;;;;7.93;5.60;;;-2.10;52.00;;;;;;4376569;32;20085;-58
2021/03/07 11:18:35;;;;;;;7.35;5.10;;;-2.00;51.80;;;;;;4374935;32;20070;-59
2021/03/07 11:21:02;;;;;;;8.75;5.43;;;-2.10;52.30;;;;;;4370849;32;20065;-58
2021/03/07 11:23:29;;;;;;;7.07;5.28;;;-2.70;53.10;;;;;;4362667;32;20063;-58
2021/03/07 11:25:55;;;;;;;7.55;5.00;;;-2.20;53.10;;;;;;4362407;32;20086;-57
2021/03/07 11:28:21;;;;;;;6.53;4.68;;;-2.40;53.10;;;;;;4377945;32;20167;-59
2021/03/07 11:30:48;;;;;;;8.02;5.55;;;-2.40;53.40;;;;;;4390024;32;20065;-59
2021/03/07 11:33:14;;;;;;;7.68;5.50;;;-2.10;53.50;;;;;;4384496;32;20070;-58
2021/03/07 11:35:40;;;;;;;7.62;5.00;;;-2.90;54.50;;;;;;4376405;32;20070;-59
2021/03/07 11:38:06;;;;;;;8.00;4.95;;;-2.20;54.30;;;;;;4376922;32;20170;-59
2021/03/07 11:40:32;;;;;;;7.20;4.72;;;-2.00;53.80;;;;;;4376525;32;20154;-58
2021/03/07 11:42:59;;;;;;;7.82;4.28;;;-2.40;53.60;;;;;;4377485;32;20081;-59
2021/03/07 11:45:25;;;;;;;7.85;4.95;;;-2.10;54.20;;;;;;4377064;32;20089;-59
2021/03/07 11:47:52;;;;;;;7.03;4.43;;;-2.20;53.80;;;;;;4351515;32;20151;-58
2021/03/07 11:50:18;;;;;;;6.57;4.65;;;-2.60;54.20;;;;;;4380164;32;20555;-61
2021/03/07 11:52:44;;;;;;;6.72;4.40;;;-2.40;55.10;;;;;;4363578;32;20167;-59
2021/03/07 11:55:11;;;;;;;5.57;4.15;;;-2.50;54.70;;;;;;4363226;32;20569;-57
2021/03/07 11:57:38;;;;;;;7.07;4.35;;;-2.80;55.50;;;;;;4376339;32;20081;-60
2021/03/07 12:00:05;;;;;;;5.60;4.15;;;-2.40;54.80;;;;;;4368535;32;20070;-58
2021/03/07 12:02:32;;;;;;;5.82;4.18;;;-2.60;55.00;;;;;;4364126;32;20073;-57
2021/03/07 12:04:58;;;;;;;5.10;3.72;;;-2.90;55.80;;;;;;4364551;32;20073;-58
2021/03/07 12:07:25;;;;;;;5.57;3.95;;;-3.10;56.90;;;;;;4381513;32;20062;-59
2021/03/07 12:09:51;;;;;;;5.25;3.75;;;-3.00;56.80;;;;;;4363723;32;20066;-58
2021/03/07 12:12:17;;;;;;;6.22;4.30;;;-2.80;56.90;;;;;;4375132;32;20069;-58
2021/03/07 12:14:43;;;;;;;5.60;3.95;;;-3.20;57.30;;;;;;4375201;32;20067;-59
2021/03/07 12:17:10;;;;;;;4.82;3.53;;;-3.50;58.90;;;;;;4362145;32;20070;-58
2021/03/07 12:19:36;;;;;;;4.95;3.37;;;-3.40;59.00;;;;;;4362481;32;20142;-58
2021/03/07 12:22:03;;;;;;;5.18;3.70;;;-3.90;59.30;;;;;;4362314;32;20074;-58
2021/03/07 12:24:29;;;;;;;6.35;3.53;;;-3.60;58.90;;;;;;4362597;32;20086;-59
2021/03/07 12:27:04;;;;;;;4.87;3.42;;;-3.40;59.30;;;;;;4362383;32;20093;-58
2021/03/07 12:29:34;;;;;;;5.82;2.87;;;-3.20;58.90;;;;;;4363186;32;20069;-58
2021/03/07 12:32:02;;;;;;;4.32;3.17;;;-3.20;58.20;;;;;;4338146;32;20063;-60
2021/03/07 12:34:28;;;;;;;5.35;3.30;;;-3.40;58.70;;;;;;4360362;32;20074;-59
2021/03/07 12:36:54;;;;;;;4.85;2.97;;;-3.10;59.00;;;;;;4374573;32;20071;-59
2021/03/07 12:39:21;;;;;;;5.05;3.30;;;-3.30;59.20;;;;;;4374886;32;20150;-58
2021/03/07 12:41:47;;;;;;;6.00;2.90;;;-3.50;60.00;;;;;;4352903;32;20162;-59
2021/03/07 12:44:14;;;;;;;4.80;3.20;;;-2.90;59.40;;;;;;4378577;32;20067;-59
2021/03/07 12:46:40;;;;;;;4.68;3.20;;;-2.90;58.10;;;;;;4378496;32;20073;-58
2021/03/07 12:49:07;;;;;;;5.20;3.35;;;-3.20;58.40;;;;;;4374042;32;20169;-59
2021/03/07 12:51:34;;;;;;;4.47;3.33;;;-3.30;59.40;;;;;;4377225;32;20512;-57
2021/03/07 12:54:01;;;;;;;5.07;3.30;;;-2.70;58.10;;;;;;4377393;32;20493;-58
2021/03/07 12:56:27;;;;;;;5.00;3.53;;;-3.10;58.90;;;;;;4376762;32;20069;-58